Time;durP1;ratioP1;P1;durP2;ratioP2;P2;SDS_P1;SDS_P2;PMS_P1;PMS_P2;Temp;Humidity;BMP_temperature;BMP_pressure;BME280_temperature;BME280_humidity;BME280_pressure;Samples;Min_cycle;Max_cycle;Signal;HPM_P1;HPM_P2
2023/08/31 00:01:32;;;;;;;0.00;0.00;;;14.40;99.90;;;;;;5051865;28;20616;-58
2023/08/31 00:03:59;;;;;;;0.00;0.00;;;14.40;99.90;;;;;;5052238;28;20182;-58
2023/08/31 00:06:25;;;;;;;0.00;0.00;;;14.40;99.90;;;;;;5052057;28;20190;-59
2023/08/31 00:08:50;;;;;;;0.00;0.00;;;14.40;99.90;;;;;;5052137;28;20256;-58
2023/08/31 00:11:16;;;;;;;0.00;0.00;;;14.30;99.90;;;;;;5051934;28;20680;-58
2023/08/31 00:13:42;;;;;;;0.00;0.00;;;14.30;99.90;;;;;;5051951;28;20182;-59
2023/08/31 00:16:09;;;;;;;0.00;0.00;;;14.30;99.90;;;;;;5051507;28;20207;-58
2023/08/31 00:18:36;;;;;;;0.00;0.00;;;14.30;99.90;;;;;;5051908;28;20239;-58
2023/08/31 00:21:02;;;;;;;0.00;0.00;;;14.30;99.90;;;;;;5051790;28;20177;-58
2023/08/31 00:23:29;;;;;;;0.00;0.00;;;14.30;99.90;;;;;;5051831;28;20193;-58
2023/08/31 00:25:57;;;;;;;0.00;0.00;;;14.30;99.90;;;;;;5051356;28;20222;-58
2023/08/31 00:28:22;;;;;;;0.00;0.00;;;14.30;99.90;;;;;;5051266;28;20192;-58
2023/08/31 00:30:48;;;;;;;0.10;0.10;;;14.20;99.90;;;;;;5051259;28;20213;-58
2023/08/31 00:33:15;;;;;;;0.10;0.08;;;14.20;99.90;;;;;;5048729;28;20212;-58
2023/08/31 00:35:45;;;;;;;0.00;0.00;;;14.20;99.90;;;;;;5051391;28;20181;-58
2023/08/31 00:38:11;;;;;;;0.00;0.00;;;14.20;99.90;;;;;;5051152;28;20181;-58
2023/08/31 00:40:42;;;;;;;0.00;0.00;;;14.20;99.90;;;;;;5051273;28;20181;-58
2023/08/31 00:43:08;;;;;;;0.00;0.00;;;14.20;99.90;;;;;;5051094;28;20354;-58
2023/08/31 00:45:34;;;;;;;0.00;0.00;;;14.20;99.90;;;;;;5052851;28;20216;-58
2023/08/31 00:48:00;;;;;;;0.08;0.08;;;14.20;99.90;;;;;;5050338;28;20612;-58
2023/08/31 00:50:26;;;;;;;0.00;0.00;;;14.20;99.90;;;;;;5051008;28;20268;-58
2023/08/31 00:52:52;;;;;;;0.00;0.00;;;14.20;99.90;;;;;;5051136;28;20223;-58
2023/08/31 00:55:17;;;;;;;0.00;0.00;;;14.20;99.90;;;;;;5051160;28;20181;-58
2023/08/31 00:57:43;;;;;;;0.00;0.00;;;14.20;99.90;;;;;;5050842;28;20177;-58
2023/08/31 01:00:10;;;;;;;0.00;0.00;;;14.30;99.90;;;;;;5050872;28;20611;-58
2023/08/31 01:03:03;;;;;;;0.00;0.00;;;14.30;99.90;;;;;;5050854;28;20186;-58
2023/08/31 01:05:44;;;;;;;0.00;0.00;;;14.30;99.90;;;;;;5050914;28;20181;-58
2023/08/31 01:08:19;;;;;;;0.00;0.00;;;14.30;99.90;;;;;;5036157;28;20637;-58
2023/08/31 01:11:16;;;;;;;0.00;0.00;;;14.30;99.90;;;;;;5052210;28;20183;-58
2023/08/31 01:13:48;;;;;;;0.00;0.00;;;14.30;99.90;;;;;;5035396;28;20280;-58
2023/08/31 01:16:15;;;;;;;0.00;0.00;;;14.30;99.90;;;;;;5050939;28;20173;-58
2023/08/31 01:18:43;;;;;;;0.00;0.00;;;14.30;99.90;;;;;;5051013;28;20671;-58
2023/08/31 01:21:22;;;;;;;0.00;0.00;;;14.40;99.90;;;;;;5050503;28;20193;-58
2023/08/31 01:23:54;;;;;;;0.00;0.00;;;14.30;99.90;;;;;;5050752;28;20208;-58
2023/08/31 01:26:22;;;;;;;0.00;0.00;;;14.30;99.90;;;;;;5050887;28;20181;-58
2023/08/31 01:28:48;;;;;;;0.00;0.00;;;14.40;99.90;;;;;;5050768;28;20231;-58
2023/08/31 01:31:17;;;;;;;0.00;0.00;;;14.40;99.90;;;;;;5049955;28;20224;-58
2023/08/31 01:33:43;;;;;;;0.00;0.00;;;14.40;99.90;;;;;;5048149;28;20181;-58
2023/08/31 01:36:24;;;;;;;0.10;0.10;;;14.30;99.90;;;;;;5048518;28;20184;-58
2023/08/31 01:39:14;;;;;;;0.00;0.00;;;14.30;99.90;;;;;;5050344;28;20560;-58
2023/08/31 01:41:45;;;;;;;0.00;0.00;;;14.30;99.90;;;;;;5050321;28;20204;-58
2023/08/31 01:44:15;;;;;;;0.00;0.00;;;14.30;99.90;;;;;;5050225;28;20637;-58
2023/08/31 01:46:41;;;;;;;0.00;0.00;;;14.30;99.90;;;;;;5038957;28;20260;-58
2023/08/31 01:49:07;;;;;;;0.10;0.10;;;14.30;99.90;;;;;;5050573;28;20304;-58
2023/08/31 01:51:33;;;;;;;0.00;0.00;;;14.30;99.90;;;;;;5050059;28;20656;-58
2023/08/31 01:53:58;;;;;;;0.00;0.00;;;14.30;99.90;;;;;;5050164;28;20208;-58
2023/08/31 01:56:24;;;;;;;0.00;0.00;;;14.30;99.90;;;;;;5050452;28;20174;-58
2023/08/31 01:58:50;;;;;;;0.00;0.00;;;14.30;99.90;;;;;;5050446;28;20223;-58
2023/08/31 02:01:16;;;;;;;0.00;0.00;;;14.30;99.90;;;;;;5050272;28;20223;-58
2023/08/31 02:03:41;;;;;;;0.00;0.00;;;14.30;99.90;;;;;;5050221;28;20180;-58
2023/08/31 02:06:07;;;;;;;0.00;0.00;;;14.30;99.90;;;;;;5049770;28;20185;-58
2023/08/31 02:08:33;;;;;;;0.00;0.00;;;14.30;99.90;;;;;;5050096;28;20512;-58
2023/08/31 02:10:58;;;;;;;0.00;0.00;;;14.30;99.90;;;;;;5050281;28;20182;-58
2023/08/31 02:13:24;;;;;;;0.00;0.00;;;14.30;99.90;;;;;;5050362;28;20280;-58
2023/08/31 02:15:52;;;;;;;0.00;0.00;;;14.30;99.90;;;;;;5050375;28;20216;-58
2023/08/31 02:18:17;;;;;;;0.00;0.00;;;14.30;99.90;;;;;;5050108;28;20269;-58
2023/08/31 02:20:43;;;;;;;0.00;0.00;;;14.30;99.90;;;;;;5050028;28;20268;-58
2023/08/31 02:23:09;;;;;;;0.43;0.03;;;14.30;99.90;;;;;;5049651;28;20186;-58
2023/08/31 02:25:35;;;;;;;0.00;0.00;;;14.30;99.90;;;;;;5049997;28;20261;-58
2023/08/31 02:28:00;;;;;;;0.03;0.03;;;14.30;99.90;;;;;;5049819;28;20181;-59
2023/08/31 02:30:26;;;;;;;0.00;0.00;;;14.30;99.90;;;;;;5049611;28;20664;-58
2023/08/31 02:32:52;;;;;;;0.00;0.00;;;14.30;99.90;;;;;;5044507;28;20228;-58
2023/08/31 02:35:17;;;;;;;0.00;0.00;;;14.30;99.90;;;;;;5049709;28;20170;-58
2023/08/31 02:37:43;;;;;;;0.00;0.00;;;14.30;99.90;;;;;;5049673;28;20209;-58
2023/08/31 02:40:09;;;;;;;0.03;0.03;;;14.30;99.90;;;;;;5049365;28;20697;-58
2023/08/31 02:42:34;;;;;;;0.00;0.00;;;14.30;99.90;;;;;;5049820;28;20177;-59
2023/08/31 02:45:00;;;;;;;0.00;0.00;;;14.30;99.90;;;;;;5049718;28;20312;-58
2023/08/31 02:47:26;;;;;;;0.00;0.00;;;14.20;99.90;;;;;;5050241;28;20185;-58
2023/08/31 02:49:52;;;;;;;0.35;0.10;;;14.20;99.90;;;;;;5053671;28;20182;-58
2023/08/31 02:52:17;;;;;;;0.00;0.00;;;14.20;99.90;;;;;;5053091;28;20217;-58
2023/08/31 02:54:43;;;;;;;0.00;0.00;;;14.30;99.90;;;;;;5053171;28;20181;-59
2023/08/31 02:57:08;;;;;;;0.00;0.00;;;14.20;99.90;;;;;;5053375;28;20231;-58
2023/08/31 02:59:35;;;;;;;0.00;0.00;;;14.30;99.90;;;;;;5052667;28;20703;-59
2023/08/31 03:02:02;;;;;;;0.00;0.00;;;14.20;99.90;;;;;;5053447;28;20188;-60
2023/08/31 03:04:28;;;;;;;0.00;0.00;;;14.20;99.90;;;;;;5053143;28;20193;-59
2023/08/31 03:06:54;;;;;;;0.00;0.00;;;14.20;99.90;;;;;;5052694;28;20343;-59
2023/08/31 03:09:20;;;;;;;0.00;0.00;;;14.20;99.90;;;;;;5053125;28;20201;-60
2023/08/31 03:11:46;;;;;;;0.00;0.00;;;14.10;99.90;;;;;;5036841;28;20205;-59
2023/08/31 03:14:11;;;;;;;0.00;0.00;;;14.10;99.90;;;;;;5053168;28;20231;-60
2023/08/31 03:16:37;;;;;;;0.00;0.00;;;14.20;99.90;;;;;;5053095;28;20247;-58
2023/08/31 03:19:02;;;;;;;0.00;0.00;;;14.20;99.90;;;;;;5047701;28;20540;-58
2023/08/31 03:21:28;;;;;;;0.00;0.00;;;14.20;99.90;;;;;;5043790;28;20188;-60
2023/08/31 03:23:54;;;;;;;0.00;0.00;;;14.10;99.90;;;;;;5051123;28;20184;-60
2023/08/31 03:26:19;;;;;;;0.00;0.00;;;14.10;99.90;;;;;;5052172;28;20189;-59
2023/08/31 03:28:45;;;;;;;0.00;0.00;;;14.10;99.90;;;;;;5052301;28;20165;-59
2023/08/31 03:31:10;;;;;;;0.00;0.00;;;14.10;99.90;;;;;;5052136;28;20221;-60
2023/08/31 03:33:36;;;;;;;0.00;0.00;;;14.10;99.90;;;;;;5050382;28;20189;-60
2023/08/31 03:36:04;;;;;;;0.00;0.00;;;14.00;99.90;;;;;;5052229;28;20222;-61
2023/08/31 03:38:37;;;;;;;0.00;0.00;;;14.10;99.90;;;;;;5052656;28;20234;-61
2023/08/31 03:41:03;;;;;;;0.00;0.00;;;14.00;99.90;;;;;;5051842;28;20200;-62
2023/08/31 03:43:29;;;;;;;0.00;0.00;;;14.00;99.90;;;;;;5052928;28;20532;-59
2023/08/31 03:45:58;;;;;;;0.00;0.00;;;14.00;99.90;;;;;;5052956;28;20173;-60
2023/08/31 03:48:24;;;;;;;0.00;0.00;;;14.00;99.90;;;;;;5052257;28;20177;-60
2023/08/31 03:50:51;;;;;;;0.00;0.00;;;14.00;99.90;;;;;;5052572;28;20184;-58
2023/08/31 03:53:17;;;;;;;0.00;0.00;;;14.00;99.90;;;;;;5052325;28;20577;-60
2023/08/31 03:55:42;;;;;;;0.00;0.00;;;14.00;99.90;;;;;;5051919;28;20173;-58
2023/08/31 03:58:08;;;;;;;0.00;0.00;;;14.00;99.90;;;;;;5052027;28;20181;-58
2023/08/31 04:00:33;;;;;;;0.00;0.00;;;14.00;99.90;;;;;;5052010;28;20174;-60
2023/08/31 04:02:59;;;;;;;0.00;0.00;;;14.00;99.90;;;;;;5052298;28;20185;-62
2023/08/31 04:05:24;;;;;;;0.00;0.00;;;14.00;99.90;;;;;;5052459;28;20173;-60
2023/08/31 04:07:50;;;;;;;0.00;0.00;;;13.90;99.90;;;;;;5051760;28;20178;-59
2023/08/31 04:10:15;;;;;;;0.00;0.00;;;14.00;99.90;;;;;;5050185;28;20197;-59
2023/08/31 04:12:42;;;;;;;0.00;0.00;;;13.90;99.90;;;;;;5049775;28;20221;-59
2023/08/31 04:15:09;;;;;;;0.00;0.00;;;13.90;99.90;;;;;;5051428;28;20216;-59
2023/08/31 04:17:34;;;;;;;0.10;0.10;;;13.90;99.90;;;;;;5050712;28;20173;-59
2023/08/31 04:20:00;;;;;;;0.00;0.00;;;13.90;99.90;;;;;;5032213;28;20170;-59
2023/08/31 04:22:26;;;;;;;0.00;0.00;;;13.90;99.90;;;;;;5031934;28;20182;-59
2023/08/31 04:24:53;;;;;;;0.00;0.00;;;13.90;99.90;;;;;;5032156;28;20179;-59
2023/08/31 04:27:18;;;;;;;0.00;0.00;;;13.90;99.90;;;;;;5032120;28;20304;-59
2023/08/31 04:29:44;;;;;;;0.00;0.00;;;13.90;99.90;;;;;;5031980;28;20253;-59
2023/08/31 04:32:09;;;;;;;0.00;0.00;;;13.90;99.90;;;;;;5031797;28;20552;-59
2023/08/31 04:34:36;;;;;;;0.00;0.00;;;13.90;99.90;;;;;;5032038;28;20206;-59
2023/08/31 04:37:02;;;;;;;0.00;0.00;;;13.90;99.90;;;;;;5031911;28;20207;-59
2023/08/31 04:39:27;;;;;;;0.00;0.00;;;13.90;99.90;;;;;;5032007;28;20176;-59
2023/08/31 04:41:53;;;;;;;0.00;0.00;;;13.90;99.90;;;;;;5031763;28;20177;-59
2023/08/31 04:44:18;;;;;;;0.00;0.00;;;13.90;99.90;;;;;;5031740;28;20688;-59
2023/08/31 04:46:44;;;;;;;0.00;0.00;;;13.90;99.90;;;;;;5031859;28;20198;-59
2023/08/31 04:49:09;;;;;;;0.00;0.00;;;13.90;99.90;;;;;;5031736;28;20540;-59
2023/08/31 04:51:39;;;;;;;0.00;0.00;;;13.90;99.90;;;;;;5031556;28;20214;-59
2023/08/31 04:54:04;;;;;;;0.00;0.00;;;13.90;99.90;;;;;;5031689;28;20522;-59
2023/08/31 04:56:32;;;;;;;0.00;0.00;;;13.90;99.90;;;;;;5031490;28;20193;-59
2023/08/31 04:58:58;;;;;;;0.00;0.00;;;13.90;99.90;;;;;;5031719;28;20181;-59
2023/08/31 05:01:23;;;;;;;0.00;0.00;;;13.90;99.90;;;;;;5031547;28;20177;-59
2023/08/31 05:03:49;;;;;;;0.10;0.10;;;13.90;99.90;;;;;;5031650;28;20185;-59
2023/08/31 05:06:14;;;;;;;0.00;0.00;;;13.90;99.90;;;;;;5031390;28;20166;-59
2023/08/31 05:08:40;;;;;;;0.00;0.00;;;13.90;99.90;;;;;;5031692;28;20185;-59
2023/08/31 05:11:06;;;;;;;0.00;0.00;;;13.90;99.90;;;;;;5030685;28;20190;-59
2023/08/31 05:13:31;;;;;;;0.00;0.00;;;13.90;99.90;;;;;;5031389;28;20529;-60
2023/08/31 05:15:57;;;;;;;0.00;0.00;;;14.00;99.90;;;;;;5031397;28;20536;-60
2023/08/31 05:18:22;;;;;;;0.00;0.00;;;14.00;99.90;;;;;;5038172;28;20185;-60
2023/08/31 05:20:48;;;;;;;0.00;0.00;;;14.00;99.90;;;;;;5051188;28;20181;-60
2023/08/31 05:23:14;;;;;;;0.00;0.00;;;14.00;99.90;;;;;;5050925;28;20181;-60
2023/08/31 05:25:46;;;;;;;0.00;0.00;;;14.10;99.90;;;;;;5051133;28;20181;-59
2023/08/31 05:28:12;;;;;;;0.00;0.00;;;14.10;99.90;;;;;;5050999;28;20170;-60
2023/08/31 05:30:53;;;;;;;0.00;0.00;;;14.20;99.90;;;;;;5051030;28;20239;-60
2023/08/31 05:33:19;;;;;;;0.00;0.00;;;14.30;99.90;;;;;;5033293;28;20302;-60
2023/08/31 05:35:45;;;;;;;0.00;0.00;;;14.30;99.90;;;;;;5031046;28;20530;-60
2023/08/31 05:38:11;;;;;;;0.00;0.00;;;14.30;99.90;;;;;;5030901;28;20186;-60
2023/08/31 05:40:37;;;;;;;0.00;0.00;;;14.30;99.90;;;;;;5031182;28;20517;-59
2023/08/31 05:43:03;;;;;;;0.00;0.00;;;14.30;99.90;;;;;;5031001;28;20183;-59
2023/08/31 05:45:34;;;;;;;0.00;0.00;;;14.30;99.90;;;;;;5031101;28;20236;-59
2023/08/31 05:48:00;;;;;;;0.00;0.00;;;14.30;99.90;;;;;;5030950;28;20265;-60
2023/08/31 05:50:27;;;;;;;0.00;0.00;;;14.30;99.90;;;;;;5030922;28;20677;-60
2023/08/31 05:52:52;;;;;;;0.00;0.00;;;14.30;99.90;;;;;;5030870;28;20218;-59
2023/08/31 05:55:18;;;;;;;0.00;0.00;;;14.30;99.90;;;;;;5030736;28;20239;-60
2023/08/31 05:57:43;;;;;;;0.00;0.00;;;14.40;99.90;;;;;;5031054;28;20209;-60
2023/08/31 06:00:09;;;;;;;0.00;0.00;;;14.40;99.90;;;;;;5030867;28;20654;-61
2023/08/31 06:02:35;;;;;;;0.00;0.00;;;14.40;99.90;;;;;;5031255;28;20177;-60
2023/08/31 06:05:01;;;;;;;0.00;0.00;;;14.50;99.90;;;;;;5030475;28;20174;-59
2023/08/31 06:07:28;;;;;;;0.00;0.00;;;14.50;99.90;;;;;;5030804;28;20684;-60
2023/08/31 06:09:54;;;;;;;0.00;0.00;;;14.60;99.90;;;;;;5030644;28;20316;-60
2023/08/31 06:12:20;;;;;;;0.00;0.00;;;14.50;99.90;;;;;;5030572;28;20249;-60
2023/08/31 06:14:46;;;;;;;0.00;0.00;;;14.70;99.90;;;;;;5030727;28;20267;-60
2023/08/31 06:17:12;;;;;;;0.00;0.00;;;14.70;99.90;;;;;;5030460;28;20174;-60
2023/08/31 06:19:39;;;;;;;0.00;0.00;;;14.80;99.90;;;;;;5047899;28;20277;-60
2023/08/31 06:22:04;;;;;;;0.00;0.00;;;14.90;99.90;;;;;;5050618;28;20178;-60
2023/08/31 06:24:30;;;;;;;0.00;0.00;;;15.30;99.90;;;;;;5054489;28;20867;-60
2023/08/31 06:26:56;;;;;;;0.00;0.00;;;15.60;99.90;;;;;;5054671;28;20182;-60
2023/08/31 06:29:22;;;;;;;0.00;0.00;;;16.20;99.90;;;;;;5054486;28;20252;-60
2023/08/31 06:31:48;;;;;;;0.00;0.00;;;16.70;99.90;;;;;;5049193;28;20321;-60
2023/08/31 06:34:13;;;;;;;0.00;0.00;;;17.00;99.90;;;;;;5034362;28;20581;-60
2023/08/31 06:36:39;;;;;;;0.00;0.00;;;17.50;99.90;;;;;;5034499;28;20657;-60
2023/08/31 06:39:06;;;;;;;0.00;0.00;;;17.90;99.90;;;;;;5034459;28;20185;-61
2023/08/31 06:41:32;;;;;;;0.00;0.00;;;17.90;99.90;;;;;;5034201;28;20536;-60
2023/08/31 06:43:57;;;;;;;0.00;0.00;;;17.80;99.90;;;;;;5034496;28;20220;-60
2023/08/31 06:46:23;;;;;;;0.00;0.00;;;18.20;99.90;;;;;;5034354;28;20208;-60
2023/08/31 06:48:48;;;;;;;0.00;0.00;;;18.50;99.90;;;;;;5034384;28;20171;-60
2023/08/31 06:51:14;;;;;;;0.00;0.00;;;18.70;99.90;;;;;;5034036;28;20650;-60
2023/08/31 06:53:43;;;;;;;0.00;0.00;;;18.80;99.90;;;;;;5034147;28;20181;-60
2023/08/31 06:56:08;;;;;;;0.00;0.00;;;18.60;99.90;;;;;;5034119;28;20198;-60
2023/08/31 06:58:34;;;;;;;0.00;0.00;;;18.50;99.90;;;;;;5034098;28;20660;-60
2023/08/31 07:00:59;;;;;;;0.00;0.00;;;18.30;99.90;;;;;;5034150;28;20668;-60
2023/08/31 07:03:25;;;;;;;0.00;0.00;;;18.00;99.90;;;;;;5033937;28;20849;-60
2023/08/31 07:05:50;;;;;;;0.00;0.00;;;17.80;99.90;;;;;;5033785;28;20194;-60
2023/08/31 07:08:16;;;;;;;0.00;0.00;;;17.80;99.90;;;;;;5033729;28;20208;-60
2023/08/31 07:10:41;;;;;;;0.00;0.00;;;17.80;99.90;;;;;;5033850;28;20174;-61
2023/08/31 07:13:07;;;;;;;0.00;0.00;;;17.80;99.90;;;;;;5033706;28;20214;-60
2023/08/31 07:15:33;;;;;;;0.00;0.00;;;18.00;99.90;;;;;;5033642;28;20174;-60
2023/08/31 07:17:59;;;;;;;0.00;0.00;;;18.80;99.90;;;;;;5037284;28;20236;-60
2023/08/31 07:20:25;;;;;;;0.00;0.00;;;19.00;99.90;;;;;;5053477;28;20303;-60
2023/08/31 07:22:51;;;;;;;0.00;0.00;;;19.30;99.90;;;;;;5053322;28;20704;-60
2023/08/31 07:25:17;;;;;;;0.00;0.00;;;19.60;99.90;;;;;;5053303;28;20176;-60
2023/08/31 07:27:43;;;;;;;0.00;0.00;;;20.20;99.90;;;;;;5053327;28;20168;-60
2023/08/31 07:30:09;;;;;;;0.00;0.00;;;20.30;99.90;;;;;;5053038;28;20225;-60
2023/08/31 07:32:35;;;;;;;0.00;0.00;;;20.50;99.90;;;;;;5041700;28;20214;-60
2023/08/31 07:35:03;;;;;;;0.00;0.00;;;20.70;99.90;;;;;;5032220;28;20181;-60
2023/08/31 07:37:28;;;;;;;0.00;0.00;;;21.30;99.90;;;;;;5033335;28;20236;-60
2023/08/31 07:39:54;;;;;;;0.00;0.00;;;21.80;99.90;;;;;;5033115;28;20174;-60
2023/08/31 07:42:19;;;;;;;0.00;0.00;;;21.90;99.90;;;;;;5033081;28;20170;-60
2023/08/31 07:44:45;;;;;;;0.00;0.00;;;21.80;99.80;;;;;;5033163;28;20716;-60
2023/08/31 07:47:10;;;;;;;0.08;0.08;;;21.90;99.90;;;;;;5033018;28;20181;-60
2023/08/31 07:49:36;;;;;;;0.00;0.00;;;22.30;99.90;;;;;;5033154;28;20257;-60
2023/08/31 07:52:02;;;;;;;0.00;0.00;;;22.90;99.30;;;;;;5032832;28;20225;-60
2023/08/31 07:54:28;;;;;;;0.00;0.00;;;22.90;97.70;;;;;;5033241;28;20185;-60
2023/08/31 07:56:54;;;;;;;0.00;0.00;;;23.00;97.60;;;;;;5032976;28;20269;-60
2023/08/31 07:59:19;;;;;;;0.00;0.00;;;22.70;97.20;;;;;;5033120;28;20174;-60
2023/08/31 08:01:45;;;;;;;0.00;0.00;;;22.30;97.50;;;;;;5033020;28;20189;-60
2023/08/31 08:04:11;;;;;;;0.00;0.00;;;21.90;98.10;;;;;;5032884;28;20174;-60
2023/08/31 08:06:37;;;;;;;0.00;0.00;;;21.70;98.90;;;;;;5033037;28;20181;-60
2023/08/31 08:09:04;;;;;;;0.00;0.00;;;21.50;98.70;;;;;;5032846;28;20174;-61
2023/08/31 08:11:30;;;;;;;0.00;0.00;;;21.10;99.00;;;;;;5032721;28;20596;-60
2023/08/31 08:13:56;;;;;;;0.00;0.00;;;20.90;99.40;;;;;;5032831;28;20260;-60
2023/08/31 08:16:21;;;;;;;0.00;0.00;;;20.80;99.50;;;;;;5032662;28;20178;-60
2023/08/31 08:18:47;;;;;;;0.00;0.00;;;20.60;99.70;;;;;;5042998;28;20683;-60
2023/08/31 08:21:12;;;;;;;0.00;0.00;;;20.50;99.80;;;;;;5052356;28;20632;-60
2023/08/31 08:23:38;;;;;;;0.00;0.00;;;20.50;99.90;;;;;;5052540;28;20561;-60
2023/08/31 08:26:03;;;;;;;0.00;0.00;;;20.60;99.90;;;;;;5052476;28;20182;-60
2023/08/31 08:28:29;;;;;;;0.00;0.00;;;20.60;99.40;;;;;;5052496;28;20531;-60
2023/08/31 08:30:54;;;;;;;0.00;0.00;;;20.70;99.30;;;;;;5052049;28;20584;-60
2023/08/31 08:33:20;;;;;;;0.00;0.00;;;20.80;98.80;;;;;;5034409;28;20755;-60
2023/08/31 08:35:46;;;;;;;0.00;0.00;;;21.10;99.00;;;;;;5032461;28;20208;-60
2023/08/31 08:38:11;;;;;;;0.00;0.00;;;20.90;98.00;;;;;;5032111;28;20174;-60
2023/08/31 08:40:37;;;;;;;0.00;0.00;;;21.40;98.80;;;;;;5032407;28;20186;-60
2023/08/31 08:43:07;;;;;;;0.00;0.00;;;21.60;97.50;;;;;;5032184;28;20509;-60
2023/08/31 08:45:42;;;;;;;0.00;0.00;;;22.30;97.20;;;;;;5032036;28;20186;-60
2023/08/31 08:48:08;;;;;;;0.00;0.00;;;22.60;96.20;;;;;;5032045;28;20534;-60
2023/08/31 08:50:36;;;;;;;0.00;0.00;;;22.90;95.60;;;;;;5032071;28;20174;-60
2023/08/31 08:53:02;;;;;;;0.00;0.00;;;22.90;93.90;;;;;;5031981;28;20216;-60
2023/08/31 08:55:28;;;;;;;0.00;0.00;;;23.20;94.30;;;;;;5031996;28;20174;-60
2023/08/31 08:57:53;;;;;;;0.00;0.00;;;23.20;93.40;;;;;;5031827;28;20174;-60
2023/08/31 09:00:19;;;;;;;0.00;0.00;;;22.90;91.90;;;;;;5031861;28;20185;-60
2023/08/31 09:02:45;;;;;;;0.00;0.00;;;22.80;92.40;;;;;;5030738;28;20205;-60
2023/08/31 09:05:11;;;;;;;0.00;0.00;;;23.10;92.60;;;;;;5031617;28;20174;-60
2023/08/31 09:07:36;;;;;;;0.00;0.00;;;23.20;91.30;;;;;;5031819;28;20178;-60
2023/08/31 09:10:03;;;;;;;0.00;0.00;;;23.30;91.20;;;;;;5031751;28;20174;-60
2023/08/31 09:12:29;;;;;;;0.00;0.00;;;22.80;90.30;;;;;;5031498;28;20240;-60
2023/08/31 09:15:04;;;;;;;0.00;0.00;;;22.60;90.00;;;;;;5031796;28;20641;-60
2023/08/31 09:17:42;;;;;;;0.00;0.00;;;22.40;91.20;;;;;;5031382;28;20605;-60
2023/08/31 09:20:09;;;;;;;0.00;0.00;;;22.50;91.40;;;;;;5031733;28;20232;-60
2023/08/31 09:22:34;;;;;;;0.00;0.00;;;22.60;90.70;;;;;;5031657;28;20638;-60
2023/08/31 09:25:00;;;;;;;0.00;0.00;;;22.60;89.60;;;;;;5031507;28;20189;-60
2023/08/31 09:27:26;;;;;;;0.00;0.00;;;22.20;89.20;;;;;;5031327;28;20170;-60
2023/08/31 09:29:55;;;;;;;0.00;0.00;;;21.60;90.20;;;;;;5031229;28;20177;-61
2023/08/31 09:32:21;;;;;;;0.00;0.00;;;21.70;91.10;;;;;;5040654;28;20213;-60
2023/08/31 09:34:48;;;;;;;0.00;0.00;;;22.00;91.30;;;;;;5051365;28;20180;-60
2023/08/31 09:37:15;;;;;;;0.00;0.00;;;21.90;90.30;;;;;;5051096;28;20227;-60
2023/08/31 09:39:41;;;;;;;0.00;0.00;;;22.20;90.50;;;;;;5051241;28;20268;-60
2023/08/31 09:42:07;;;;;;;0.00;0.00;;;22.10;88.80;;;;;;5051155;28;20265;-60
2023/08/31 09:44:33;;;;;;;0.00;0.00;;;22.00;89.50;;;;;;5049936;28;20165;-60
2023/08/31 09:46:59;;;;;;;0.00;0.00;;;21.90;87.60;;;;;;5051161;28;20181;-60
2023/08/31 09:49:25;;;;;;;0.00;0.00;;;21.90;87.80;;;;;;5051127;28;20252;-60
2023/08/31 09:51:51;;;;;;;0.00;0.00;;;21.90;88.30;;;;;;5050837;28;20213;-60
2023/08/31 09:54:19;;;;;;;0.00;0.00;;;22.10;87.40;;;;;;5050981;28;20260;-60
2023/08/31 09:56:47;;;;;;;0.00;0.00;;;22.30;87.10;;;;;;5050728;28;20185;-60
2023/08/31 09:59:14;;;;;;;0.00;0.00;;;22.60;86.50;;;;;;5050668;28;20189;-61
2023/08/31 10:01:41;;;;;;;0.00;0.00;;;23.10;87.70;;;;;;5051008;28;20174;-60
2023/08/31 10:04:08;;;;;;;0.00;0.00;;;23.80;90.00;;;;;;5051001;28;20201;-60
2023/08/31 10:06:35;;;;;;;0.00;0.00;;;24.10;85.00;;;;;;5050914;28;20184;-60
2023/08/31 10:09:02;;;;;;;0.00;0.00;;;24.10;81.60;;;;;;5050868;28;20683;-60
2023/08/31 10:11:29;;;;;;;0.00;0.00;;;23.70;79.60;;;;;;5050728;28;20193;-61
2023/08/31 10:13:55;;;;;;;0.00;0.00;;;23.40;78.30;;;;;;5050803;28;20181;-60
2023/08/31 10:16:22;;;;;;;0.00;0.00;;;23.30;79.50;;;;;;5050681;28;20296;-61
2023/08/31 10:18:48;;;;;;;0.25;0.25;;;23.50;79.80;;;;;;5040387;28;20182;-60
2023/08/31 10:21:17;;;;;;;0.00;0.00;;;23.30;77.90;;;;;;5030658;28;20186;-60
2023/08/31 10:23:50;;;;;;;0.00;0.00;;;23.20;78.60;;;;;;5030770;28;20178;-60
2023/08/31 10:26:30;;;;;;;0.00;0.00;;;23.40;80.80;;;;;;5030582;28;20170;-60
2023/08/31 10:28:57;;;;;;;0.00;0.00;;;23.20;77.20;;;;;;5030694;28;20186;-60
2023/08/31 10:31:23;;;;;;;0.00;0.00;;;23.10;80.20;;;;;;5031731;28;20303;-60
2023/08/31 10:33:58;;;;;;;0.00;0.00;;;23.00;79.90;;;;;;5050697;28;20191;-60
2023/08/31 10:36:36;;;;;;;0.00;0.00;;;23.20;80.50;;;;;;5050490;28;20323;-60
2023/08/31 10:39:13;;;;;;;0.00;0.00;;;23.40;79.20;;;;;;5050585;28;20185;-60
2023/08/31 10:41:39;;;;;;;0.00;0.00;;;23.60;78.50;;;;;;5050549;28;20272;-60
2023/08/31 10:44:21;;;;;;;0.00;0.00;;;24.10;79.20;;;;;;5050546;28;20260;-61
2023/08/31 10:46:47;;;;;;;0.00;0.00;;;24.60;77.30;;;;;;5050572;28;20174;-61
2023/08/31 10:49:14;;;;;;;0.00;0.00;;;24.90;74.40;;;;;;5050289;28;20181;-60
2023/08/31 10:51:56;;;;;;;0.00;0.00;;;25.10;73.40;;;;;;5050406;28;20212;-61
2023/08/31 10:54:34;;;;;;;0.00;0.00;;;25.40;73.30;;;;;;5050344;28;20177;-61
2023/08/31 10:57:00;;;;;;;0.00;0.00;;;25.50;74.20;;;;;;5050430;28;20634;-60
2023/08/31 10:59:40;;;;;;;0.00;0.00;;;25.50;69.50;;;;;;5050200;28;20249;-60
2023/08/31 11:02:06;;;;;;;0.00;0.00;;;24.70;69.70;;;;;;5050385;28;20182;-60
2023/08/31 11:04:53;;;;;;;0.00;0.00;;;23.80;70.70;;;;;;5050254;28;20173;-60
2023/08/31 11:07:19;;;;;;;0.00;0.00;;;23.20;73.90;;;;;;5050304;28;20170;-60
2023/08/31 11:09:46;;;;;;;0.00;0.00;;;22.50;74.80;;;;;;5051400;28;20184;-60
2023/08/31 11:12:12;;;;;;;0.00;0.00;;;22.10;77.40;;;;;;5053681;28;20212;-60
2023/08/31 11:14:38;;;;;;;0.00;0.00;;;21.70;79.30;;;;;;5053873;28;20647;-60
2023/08/31 11:17:05;;;;;;;0.00;0.00;;;21.40;80.70;;;;;;5053744;28;20263;-60
2023/08/31 11:19:31;;;;;;;0.00;0.00;;;21.00;79.60;;;;;;5037320;28;20186;-61
2023/08/31 11:21:57;;;;;;;0.00;0.00;;;20.80;81.60;;;;;;5033919;28;20174;-60
2023/08/31 11:24:23;;;;;;;0.00;0.00;;;20.60;82.40;;;;;;5033717;28;20190;-60
2023/08/31 11:26:50;;;;;;;0.00;0.00;;;20.40;83.30;;;;;;5033779;28;20265;-60
2023/08/31 11:29:15;;;;;;;0.00;0.00;;;20.20;83.10;;;;;;5033476;28;20179;-60
2023/08/31 11:31:41;;;;;;;0.00;0.00;;;20.00;84.00;;;;;;5037289;28;20228;-60
2023/08/31 11:34:12;;;;;;;0.00;0.00;;;19.80;85.00;;;;;;5053417;28;20181;-61
2023/08/31 11:36:38;;;;;;;0.00;0.00;;;19.70;86.50;;;;;;5053642;28;20552;-60
2023/08/31 11:39:04;;;;;;;0.00;0.00;;;19.70;87.10;;;;;;5053440;28;20173;-60
2023/08/31 11:41:35;;;;;;;0.00;0.00;;;19.70;87.70;;;;;;5053377;28;20173;-60
2023/08/31 11:44:01;;;;;;;0.00;0.00;;;19.80;87.70;;;;;;5053270;28;20178;-60
2023/08/31 11:46:27;;;;;;;0.00;0.00;;;20.10;88.70;;;;;;5053080;28;20501;-60
2023/08/31 11:48:54;;;;;;;0.00;0.00;;;20.40;87.60;;;;;;5053155;28;20182;-60
2023/08/31 11:51:20;;;;;;;0.00;0.00;;;20.80;87.30;;;;;;5052996;28;20227;-60
2023/08/31 11:53:45;;;;;;;0.00;0.00;;;21.10;84.90;;;;;;5052963;28;20936;-60
2023/08/31 11:56:11;;;;;;;0.10;0.10;;;21.30;83.70;;;;;;5052798;28;20303;-60
2023/08/31 11:58:42;;;;;;;0.00;0.00;;;21.60;81.40;;;;;;5053007;28;20169;-60
2023/08/31 12:01:08;;;;;;;0.00;0.00;;;21.60;81.20;;;;;;5052941;28;20652;-60
2023/08/31 12:03:47;;;;;;;0.00;0.00;;;22.00;82.40;;;;;;5052857;28;20185;-60
2023/08/31 12:06:16;;;;;;;0.00;0.00;;;22.30;82.40;;;;;;5051764;28;20714;-60
2023/08/31 12:08:42;;;;;;;0.00;0.00;;;22.50;82.50;;;;;;5052553;28;20184;-61
2023/08/31 12:11:07;;;;;;;0.00;0.00;;;22.70;79.60;;;;;;5052874;28;20173;-60
2023/08/31 12:13:33;;;;;;;0.00;0.00;;;22.80;80.20;;;;;;5052495;28;20197;-60
2023/08/31 12:16:01;;;;;;;0.00;0.00;;;22.80;79.70;;;;;;5059719;28;20513;-60
2023/08/31 12:18:31;;;;;;;0.00;0.00;;;22.60;79.00;;;;;;5052361;28;20207;-60
2023/08/31 12:20:57;;;;;;;0.00;0.00;;;22.50;80.80;;;;;;5051919;28;20178;-61
2023/08/31 12:23:23;;;;;;;0.00;0.00;;;22.60;81.50;;;;;;5052385;28;20260;-61
2023/08/31 12:25:50;;;;;;;0.00;0.00;;;22.60;80.30;;;;;;5052410;28;20692;-61
2023/08/31 12:28:19;;;;;;;0.00;0.00;;;22.70;80.00;;;;;;5052066;28;20633;-61
2023/08/31 12:30:49;;;;;;;0.00;0.00;;;22.90;80.30;;;;;;5051251;28;20323;-60
2023/08/31 12:33:16;;;;;;;0.00;0.00;;;22.70;78.80;;;;;;5049930;28;20209;-61
2023/08/31 12:35:41;;;;;;;0.00;0.00;;;22.60;79.50;;;;;;5052220;28;20181;-61
2023/08/31 12:38:07;;;;;;;0.00;0.00;;;22.50;78.60;;;;;;5051891;28;20169;-60
2023/08/31 12:40:32;;;;;;;0.00;0.00;;;22.50;79.40;;;;;;5051939;28;20188;-61
2023/08/31 12:42:58;;;;;;;0.00;0.00;;;22.50;80.00;;;;;;5052079;28;20177;-60
2023/08/31 12:45:23;;;;;;;0.15;0.15;;;22.40;78.20;;;;;;5052003;28;20204;-61
2023/08/31 12:47:49;;;;;;;0.00;0.00;;;22.20;79.10;;;;;;5051104;28;20617;-61